sensor_id;sensor_type;location;lat;lon;timestamp;pressure;altitude;pressure_sealevel;temperature;humidity
39793;BME280;26080;42.264;24.536;2022-10-31T00:00:13;99577.50;;;12.38;100.00
39793;BME280;26080;42.264;24.536;2022-10-31T00:02:39;99576.81;;;12.52;100.00
39793;BME280;26080;42.264;24.536;2022-10-31T00:05:04;99579.84;;;12.61;100.00
39793;BME280;26080;42.264;24.536;2022-10-31T00:07:31;99576.88;;;12.67;100.00
39793;BME280;26080;42.264;24.536;2022-10-31T00:09:56;99585.22;;;12.75;100.00
39793;BME280;26080;42.264;24.536;2022-10-31T00:12:22;99565.59;;;12.65;100.00
39793;BME280;26080;42.264;24.536;2022-10-31T00:14:47;99583.88;;;12.84;100.00
39793;BME280;26080;42.264;24.536;2022-10-31T00:17:13;99575.28;;;12.98;100.00
39793;BME280;26080;42.264;24.536;2022-10-31T00:19:38;99577.25;;;13.10;100.00
39793;BME280;26080;42.264;24.536;2022-10-31T00:22:04;99593.03;;;13.10;100.00
39793;BME280;26080;42.264;24.536;2022-10-31T00:24:29;99593.03;;;13.10;100.00
39793;BME280;26080;42.264;24.536;2022-10-31T00:26:54;99586.84;;;13.11;100.00
39793;BME280;26080;42.264;24.536;2022-10-31T00:29:20;99577.81;;;13.17;100.00
39793;BME280;26080;42.264;24.536;2022-10-31T00:31:45;99578.09;;;13.28;100.00
39793;BME280;26080;42.264;24.536;2022-10-31T00:34:10;99585.41;;;13.39;100.00
39793;BME280;26080;42.264;24.536;2022-10-31T00:36:36;99583.88;;;13.34;100.00
39793;BME280;26080;42.264;24.536;2022-10-31T00:39:01;99583.28;;;13.29;100.00
39793;BME280;26080;42.264;24.536;2022-10-31T00:41:27;99579.56;;;13.33;100.00
39793;BME280;26080;42.264;24.536;2022-10-31T00:43:52;99569.63;;;13.39;100.00
39793;BME280;26080;42.264;24.536;2022-10-31T00:46:18;99575.31;;;13.47;100.00
39793;BME280;26080;42.264;24.536;2022-10-31T00:48:43;99554.28;;;13.31;100.00
39793;BME280;26080;42.264;24.536;2022-10-31T00:51:09;99576.75;;;13.52;100.00
39793;BME280;26080;42.264;24.536;2022-10-31T00:53:35;99573.72;;;13.60;100.00
39793;BME280;26080;42.264;24.536;2022-10-31T00:56:00;99575.72;;;13.55;100.00
39793;BME280;26080;42.264;24.536;2022-10-31T00:58:26;99573.28;;;13.52;100.00
39793;BME280;26080;42.264;24.536;2022-10-31T01:00:52;99575.41;;;13.61;100.00
39793;BME280;26080;42.264;24.536;2022-10-31T01:03:28;99565.72;;;13.77;100.00
39793;BME280;26080;42.264;24.536;2022-10-31T01:08:22;99573.31;;;13.98;100.00
39793;BME280;26080;42.264;24.536;2022-10-31T01:11:07;99576.75;;;14.00;100.00
39793;BME280;26080;42.264;24.536;2022-10-31T01:13:34;99579.28;;;14.01;100.00
39793;BME280;26080;42.264;24.536;2022-10-31T01:16:01;99573.94;;;14.03;100.00
39793;BME280;26080;42.264;24.536;2022-10-31T01:18:27;99576.38;;;14.06;100.00
39793;BME280;26080;42.264;24.536;2022-10-31T01:23:24;99549.06;;;13.92;100.00
39793;BME280;26080;42.264;24.536;2022-10-31T01:25:59;99575.88;;;14.15;99.79
39793;BME280;26080;42.264;24.536;2022-10-31T01:28:24;99568.34;;;14.23;98.50
39793;BME280;26080;42.264;24.536;2022-10-31T01:30:50;99564.97;;;14.21;98.31
39793;BME280;26080;42.264;24.536;2022-10-31T01:33:15;99572.38;;;14.14;98.69
39793;BME280;26080;42.264;24.536;2022-10-31T01:35:40;99565.72;;;14.23;98.37
39793;BME280;26080;42.264;24.536;2022-10-31T01:38:06;99563.28;;;14.20;98.61
39793;BME280;26080;42.264;24.536;2022-10-31T01:40:31;99546.66;;;14.04;98.58
39793;BME280;26080;42.264;24.536;2022-10-31T01:42:56;99572.06;;;14.05;99.51
39793;BME280;26080;42.264;24.536;2022-10-31T01:45:22;99567.47;;;13.92;99.91
39793;BME280;26080;42.264;24.536;2022-10-31T01:47:48;99565.22;;;13.86;100.00
39793;BME280;26080;42.264;24.536;2022-10-31T01:50:36;99540.09;;;13.65;100.00
39793;BME280;26080;42.264;24.536;2022-10-31T01:53:06;99563.84;;;13.79;99.82
39793;BME280;26080;42.264;24.536;2022-10-31T01:55:35;99555.19;;;13.77;99.47
39793;BME280;26080;42.264;24.536;2022-10-31T01:58:09;99559.59;;;13.77;99.02
39793;BME280;26080;42.264;24.536;2022-10-31T02:00:37;99552.56;;;13.77;98.32
39793;BME280;26080;42.264;24.536;2022-10-31T02:03:03;99553.13;;;13.82;98.00
39793;BME280;26080;42.264;24.536;2022-10-31T02:05:30;99563.16;;;13.91;97.10
39793;BME280;26080;42.264;24.536;2022-10-31T02:07:59;99552.63;;;13.91;97.16
39793;BME280;26080;42.264;24.536;2022-10-31T02:10:27;99552.81;;;13.88;97.35
39793;BME280;26080;42.264;24.536;2022-10-31T02:12:55;99523.03;;;13.72;97.32
39793;BME280;26080;42.264;24.536;2022-10-31T02:15:21;99552.06;;;13.86;97.28
39793;BME280;26080;42.264;24.536;2022-10-31T02:17:47;99537.53;;;13.79;96.67
39793;BME280;26080;42.264;24.536;2022-10-31T02:26:01;99551.13;;;13.87;95.98
39793;BME280;26080;42.264;24.536;2022-10-31T02:28:40;99556.13;;;13.76;96.81
39793;BME280;26080;42.264;24.536;2022-10-31T02:33:57;99553.69;;;13.73;96.82
39793;BME280;26080;42.264;24.536;2022-10-31T02:36:42;99551.13;;;13.72;97.00
39793;BME280;26080;42.264;24.536;2022-10-31T02:39:23;99550.19;;;13.73;96.18
39793;BME280;26080;42.264;24.536;2022-10-31T02:42:13;99549.44;;;13.71;96.81
39793;BME280;26080;42.264;24.536;2022-10-31T02:44:58;99558.50;;;13.65;97.11
39793;BME280;26080;42.264;24.536;2022-10-31T02:47:32;99537.19;;;13.54;97.10
39793;BME280;26080;42.264;24.536;2022-10-31T02:50:08;99556.47;;;13.70;96.73
39793;BME280;26080;42.264;24.536;2022-10-31T02:52:36;99547.03;;;13.66;95.96
39793;BME280;26080;42.264;24.536;2022-10-31T02:58:01;99567.56;;;13.91;95.46
39793;BME280;26080;42.264;24.536;2022-10-31T03:00:29;99568.94;;;13.98;95.42
39793;BME280;26080;42.264;24.536;2022-10-31T03:03:14;99567.97;;;14.15;94.13
39793;BME280;26080;42.264;24.536;2022-10-31T03:10:58;99559.78;;;13.58;97.64
39793;BME280;26080;42.264;24.536;2022-10-31T03:17:02;99571.13;;;13.43;99.98
39793;BME280;26080;42.264;24.536;2022-10-31T03:19:01;99567.66;;;13.42;99.54
39793;BME280;26080;42.264;24.536;2022-10-31T03:21:53;99565.38;;;13.52;99.14
39793;BME280;26080;42.264;24.536;2022-10-31T03:24:18;99555.03;;;13.64;97.61
39793;BME280;26080;42.264;24.536;2022-10-31T03:26:49;99545.41;;;13.79;96.42
39793;BME280;26080;42.264;24.536;2022-10-31T03:29:19;99565.28;;;14.31;94.81
39793;BME280;26080;42.264;24.536;2022-10-31T03:31:53;99562.53;;;14.48;93.65
39793;BME280;26080;42.264;24.536;2022-10-31T03:34:20;99561.69;;;14.47;93.44
39793;BME280;26080;42.264;24.536;2022-10-31T03:36:50;99584.75;;;14.44;93.56
39793;BME280;26080;42.264;24.536;2022-10-31T03:39:19;99567.25;;;14.27;93.75
39793;BME280;26080;42.264;24.536;2022-10-31T03:41:51;99582.69;;;14.49;92.83
39793;BME280;26080;42.264;24.536;2022-10-31T03:44:21;99589.13;;;14.43;93.25
39793;BME280;26080;42.264;24.536;2022-10-31T03:46:47;99589.28;;;14.26;94.30
39793;BME280;26080;42.264;24.536;2022-10-31T03:49:14;99604.81;;;14.31;93.90
39793;BME280;26080;42.264;24.536;2022-10-31T03:54:38;99604.50;;;14.05;95.91
39793;BME280;26080;42.264;24.536;2022-10-31T03:57:22;99602.75;;;13.90;95.95
39793;BME280;26080;42.264;24.536;2022-10-31T04:00:04;99610.28;;;13.80;96.93
39793;BME280;26080;42.264;24.536;2022-10-31T04:02:32;99618.00;;;13.83;96.47
39793;BME280;26080;42.264;24.536;2022-10-31T04:04:59;99614.69;;;13.96;95.47
39793;BME280;26080;42.264;24.536;2022-10-31T04:07:29;99609.69;;;14.07;94.75
39793;BME280;26080;42.264;24.536;2022-10-31T04:09:57;99605.63;;;13.85;95.73
39793;BME280;26080;42.264;24.536;2022-10-31T04:12:25;99607.94;;;13.76;96.74
39793;BME280;26080;42.264;24.536;2022-10-31T04:14:52;99616.94;;;13.72;96.61
39793;BME280;26080;42.264;24.536;2022-10-31T04:17:21;99625.31;;;13.94;95.09
39793;BME280;26080;42.264;24.536;2022-10-31T04:19:47;99625.25;;;13.80;96.10
39793;BME280;26080;42.264;24.536;2022-10-31T04:22:13;99622.78;;;13.61;97.60
39793;BME280;26080;42.264;24.536;2022-10-31T04:24:40;99628.25;;;13.41;98.94
39793;BME280;26080;42.264;24.536;2022-10-31T04:27:06;99631.91;;;13.38;98.53
39793;BME280;26080;42.264;24.536;2022-10-31T04:29:32;99631.53;;;13.61;97.29
39793;BME280;26080;42.264;24.536;2022-10-31T04:31:57;99629.09;;;13.41;98.65
39793;BME280;26080;42.264;24.536;2022-10-31T04:34:23;99614.44;;;13.37;98.02
39793;BME280;26080;42.264;24.536;2022-10-31T04:36:48;99600.47;;;13.19;97.98
39793;BME280;26080;42.264;24.536;2022-10-31T04:39:13;99639.00;;;13.20;100.00
39793;BME280;26080;42.264;24.536;2022-10-31T04:41:39;99607.47;;;12.86;100.00
39793;BME280;26080;42.264;24.536;2022-10-31T04:44:04;99659.72;;;12.92;100.00
39793;BME280;26080;42.264;24.536;2022-10-31T04:46:30;99652.78;;;12.91;100.00
39793;BME280;26080;42.264;24.536;2022-10-31T04:48:55;99662.44;;;12.90;100.00
39793;BME280;26080;42.264;24.536;2022-10-31T04:51:21;99661.50;;;12.91;100.00
39793;BME280;26080;42.264;24.536;2022-10-31T04:53:47;99662.03;;;12.98;100.00
39793;BME280;26080;42.264;24.536;2022-10-31T04:56:12;99669.91;;;12.98;100.00
39793;BME280;26080;42.264;24.536;2022-10-31T04:58:37;99672.88;;;12.92;100.00
39793;BME280;26080;42.264;24.536;2022-10-31T05:01:03;99674.56;;;12.93;100.00
39793;BME280;26080;42.264;24.536;2022-10-31T05:03:28;99682.63;;;12.90;100.00
39793;BME280;26080;42.264;24.536;2022-10-31T05:05:54;99678.34;;;12.87;100.00
39793;BME280;26080;42.264;24.536;2022-10-31T05:08:19;99685.38;;;12.87;100.00
39793;BME280;26080;42.264;24.536;2022-10-31T05:10:45;99681.22;;;12.83;100.00
39793;BME280;26080;42.264;24.536;2022-10-31T05:13:10;99683.25;;;12.78;100.00
39793;BME280;26080;42.264;24.536;2022-10-31T05:15:36;99695.06;;;12.86;100.00
39793;BME280;26080;42.264;24.536;2022-10-31T05:18:02;99689.88;;;12.85;100.00
39793;BME280;26080;42.264;24.536;2022-10-31T05:20:29;99684.78;;;12.82;100.00
39793;BME280;26080;42.264;24.536;2022-10-31T05:22:56;99707.34;;;12.86;100.00
39793;BME280;26080;42.264;24.536;2022-10-31T05:25:24;99699.94;;;12.94;100.00
39793;BME280;26080;42.264;24.536;2022-10-31T05:27:51;99701.88;;;12.90;100.00
39793;BME280;26080;42.264;24.536;2022-10-31T05:30:26;99690.28;;;12.94;100.00
39793;BME280;26080;42.264;24.536;2022-10-31T05:32:51;99697.63;;;13.05;100.00
39793;BME280;26080;42.264;24.536;2022-10-31T05:35:21;99705.09;;;13.13;100.00
39793;BME280;26080;42.264;24.536;2022-10-31T05:37:47;99708.91;;;13.24;100.00
39793;BME280;26080;42.264;24.536;2022-10-31T05:40:14;99711.69;;;13.39;100.00
39793;BME280;26080;42.264;24.536;2022-10-31T05:42:41;99709.84;;;13.56;100.00
39793;BME280;26080;42.264;24.536;2022-10-31T05:45:09;99712.69;;;13.69;100.00
39793;BME280;26080;42.264;24.536;2022-10-31T05:47:35;99717.19;;;13.83;100.00
39793;BME280;26080;42.264;24.536;2022-10-31T05:50:00;99714.25;;;13.89;100.00
39793;BME280;26080;42.264;24.536;2022-10-31T05:52:26;99715.28;;;13.86;100.00
39793;BME280;26080;42.264;24.536;2022-10-31T05:54:51;99714.91;;;13.77;100.00
39793;BME280;26080;42.264;24.536;2022-10-31T05:57:16;99712.53;;;13.72;100.00
39793;BME280;26080;42.264;24.536;2022-10-31T05:59:42;99723.84;;;13.74;100.00
39793;BME280;26080;42.264;24.536;2022-10-31T06:02:08;99725.47;;;13.92;100.00
39793;BME280;26080;42.264;24.536;2022-10-31T06:04:33;99732.97;;;14.00;100.00
39793;BME280;26080;42.264;24.536;2022-10-31T06:06:58;99732.28;;;14.12;100.00
39793;BME280;26080;42.264;24.536;2022-10-31T06:09:24;99740.50;;;14.22;100.00
39793;BME280;26080;42.264;24.536;2022-10-31T06:11:49;99745.03;;;14.36;99.90
39793;BME280;26080;42.264;24.536;2022-10-31T06:14:15;99742.59;;;14.48;98.89
39793;BME280;26080;42.264;24.536;2022-10-31T06:16:40;99738.69;;;14.56;99.53
39793;BME280;26080;42.264;24.536;2022-10-31T06:19:06;99743.16;;;14.69;98.36
39793;BME280;26080;42.264;24.536;2022-10-31T06:21:31;99745.00;;;14.83;97.60
39793;BME280;26080;42.264;24.536;2022-10-31T06:23:56;99724.69;;;14.85;96.18
39793;BME280;26080;42.264;24.536;2022-10-31T06:26:22;99736.41;;;14.95;97.46
39793;BME280;26080;42.264;24.536;2022-10-31T06:28:47;99751.66;;;15.04;97.40
39793;BME280;26080;42.264;24.536;2022-10-31T06:31:13;99760.13;;;15.25;97.88
39793;BME280;26080;42.264;24.536;2022-10-31T06:33:41;99753.06;;;15.40;97.39
39793;BME280;26080;42.264;24.536;2022-10-31T06:36:06;99753.69;;;15.59;95.73
39793;BME280;26080;42.264;24.536;2022-10-31T06:38:32;99751.81;;;15.76;96.34
39793;BME280;26080;42.264;24.536;2022-10-31T06:40:57;99749.94;;;15.92;96.44
39793;BME280;26080;42.264;24.536;2022-10-31T06:43:23;99762.63;;;16.14;96.24
39793;BME280;26080;42.264;24.536;2022-10-31T06:45:48;99763.16;;;16.47;94.38
39793;BME280;26080;42.264;24.536;2022-10-31T06:48:14;99749.31;;;16.71;91.25
39793;BME280;26080;42.264;24.536;2022-10-31T06:50:39;99765.94;;;17.00;89.36
39793;BME280;26080;42.264;24.536;2022-10-31T06:53:05;99769.38;;;17.27;88.22
39793;BME280;26080;42.264;24.536;2022-10-31T06:55:30;99772.13;;;17.38;89.29
39793;BME280;26080;42.264;24.536;2022-10-31T06:57:58;99768.13;;;17.45;88.35
39793;BME280;26080;42.264;24.536;2022-10-31T07:00:25;99748.13;;;17.41;87.23
39793;BME280;26080;42.264;24.536;2022-10-31T07:05:24;99754.78;;;17.60;86.67
39793;BME280;26080;42.264;24.536;2022-10-31T07:07:55;99757.84;;;17.66;86.49
39793;BME280;26080;42.264;24.536;2022-10-31T07:10:22;99750.25;;;17.74;85.28
39793;BME280;26080;42.264;24.536;2022-10-31T07:12:48;99750.34;;;17.86;83.63
39793;BME280;26080;42.264;24.536;2022-10-31T07:15:13;99749.66;;;18.08;83.03
39793;BME280;26080;42.264;24.536;2022-10-31T07:17:39;99746.03;;;18.21;81.88
39793;BME280;26080;42.264;24.536;2022-10-31T07:20:05;99744.31;;;18.33;81.65
39793;BME280;26080;42.264;24.536;2022-10-31T07:22:37;99745.53;;;18.53;80.11
39793;BME280;26080;42.264;24.536;2022-10-31T07:25:05;99745.28;;;18.69;79.67
39793;BME280;26080;42.264;24.536;2022-10-31T07:27:42;99739.13;;;18.92;77.11
39793;BME280;26080;42.264;24.536;2022-10-31T07:30:09;99746.47;;;19.23;76.57
39793;BME280;26080;42.264;24.536;2022-10-31T07:32:48;99742.41;;;19.53;74.58
39793;BME280;26080;42.264;24.536;2022-10-31T07:35:16;99718.69;;;19.74;72.16
39793;BME280;26080;42.264;24.536;2022-10-31T07:37:42;99736.19;;;20.10;72.26
39793;BME280;26080;42.264;24.536;2022-10-31T07:40:08;99733.38;;;20.34;70.26
39793;BME280;26080;42.264;24.536;2022-10-31T07:42:38;99741.59;;;20.42;68.17
39793;BME280;26080;42.264;24.536;2022-10-31T07:45:06;99742.91;;;20.59;68.20
39793;BME280;26080;42.264;24.536;2022-10-31T07:47:51;99735.94;;;20.79;67.70
39793;BME280;26080;42.264;24.536;2022-10-31T07:50:29;99734.72;;;21.04;66.71
39793;BME280;26080;42.264;24.536;2022-10-31T07:52:59;99732.97;;;21.25;65.46
39793;BME280;26080;42.264;24.536;2022-10-31T07:55:25;99729.84;;;21.41;64.18
39793;BME280;26080;42.264;24.536;2022-10-31T07:57:58;99729.09;;;21.59;64.46
39793;BME280;26080;42.264;24.536;2022-10-31T08:00:24;99721.09;;;21.59;62.13
39793;BME280;26080;42.264;24.536;2022-10-31T08:05:24;99719.91;;;21.73;62.06
39793;BME280;26080;42.264;24.536;2022-10-31T08:07:50;99723.00;;;21.69;61.30
39793;BME280;26080;42.264;24.536;2022-10-31T08:10:15;99720.41;;;21.57;62.10
39793;BME280;26080;42.264;24.536;2022-10-31T08:12:40;99722.53;;;21.64;61.46
39793;BME280;26080;42.264;24.536;2022-10-31T08:15:06;99726.09;;;21.74;61.46
39793;BME280;26080;42.264;24.536;2022-10-31T08:17:35;99723.34;;;21.85;61.43
39793;BME280;26080;42.264;24.536;2022-10-31T08:20:01;99719.88;;;21.94;61.57
39793;BME280;26080;42.264;24.536;2022-10-31T08:22:26;99712.03;;;22.02;62.05
39793;BME280;26080;42.264;24.536;2022-10-31T08:24:51;99715.88;;;22.09;61.71
39793;BME280;26080;42.264;24.536;2022-10-31T08:27:17;99717.13;;;22.05;61.77
39793;BME280;26080;42.264;24.536;2022-10-31T08:29:42;99732.13;;;22.06;61.77
39793;BME280;26080;42.264;24.536;2022-10-31T08:32:08;99721.47;;;22.06;61.37
39793;BME280;26080;42.264;24.536;2022-10-31T08:34:33;99709.63;;;21.99;60.48
39793;BME280;26080;42.264;24.536;2022-10-31T08:36:58;99722.69;;;22.02;59.84
39793;BME280;26080;42.264;24.536;2022-10-31T08:39:24;99728.03;;;22.02;60.45
39793;BME280;26080;42.264;24.536;2022-10-31T08:41:50;99727.97;;;22.13;60.41
39793;BME280;26080;42.264;24.536;2022-10-31T08:44:16;99728.94;;;22.12;59.99
39793;BME280;26080;42.264;24.536;2022-10-31T08:46:41;99733.72;;;22.18;60.79
39793;BME280;26080;42.264;24.536;2022-10-31T08:49:07;99731.66;;;22.32;59.67
39793;BME280;26080;42.264;24.536;2022-10-31T08:51:32;99731.41;;;22.35;58.68
39793;BME280;26080;42.264;24.536;2022-10-31T08:53:58;99708.22;;;22.35;59.33
39793;BME280;26080;42.264;24.536;2022-10-31T08:56:23;99726.50;;;22.59;58.08
39793;BME280;26080;42.264;24.536;2022-10-31T08:58:49;99730.19;;;22.68;57.70
39793;BME280;26080;42.264;24.536;2022-10-31T09:01:16;99720.25;;;22.89;57.43
39793;BME280;26080;42.264;24.536;2022-10-31T09:03:41;99720.66;;;23.04;56.14
39793;BME280;26080;42.264;24.536;2022-10-31T09:06:07;99726.66;;;23.25;55.38
39793;BME280;26080;42.264;24.536;2022-10-31T09:08:34;99710.94;;;23.22;53.67
39793;BME280;26080;42.264;24.536;2022-10-31T09:11:00;99721.63;;;23.32;55.10
39793;BME280;26080;42.264;24.536;2022-10-31T09:13:26;99722.41;;;23.42;56.27
39793;BME280;26080;42.264;24.536;2022-10-31T09:15:52;99705.28;;;23.35;53.42
39793;BME280;26080;42.264;24.536;2022-10-31T09:18:21;99714.84;;;23.38;53.84
39793;BME280;26080;42.264;24.536;2022-10-31T09:20:48;99714.44;;;23.32;54.57
39793;BME280;26080;42.264;24.536;2022-10-31T09:23:23;99698.41;;;23.13;53.84
39793;BME280;26080;42.264;24.536;2022-10-31T09:25:49;99716.28;;;23.22;54.07
39793;BME280;26080;42.264;24.536;2022-10-31T09:28:18;99713.75;;;23.30;55.70
39793;BME280;26080;42.264;24.536;2022-10-31T09:30:46;99710.09;;;23.31;54.14
39793;BME280;26080;42.264;24.536;2022-10-31T09:33:13;99714.84;;;23.38;54.93
39793;BME280;26080;42.264;24.536;2022-10-31T09:35:39;99711.06;;;23.30;54.05
39793;BME280;26080;42.264;24.536;2022-10-31T09:38:13;99713.44;;;23.33;53.55
39793;BME280;26080;42.264;24.536;2022-10-31T09:40:52;99709.34;;;23.29;54.37
39793;BME280;26080;42.264;24.536;2022-10-31T09:51:33;99706.28;;;23.81;53.07
39793;BME280;26080;42.264;24.536;2022-10-31T09:56:35;99702.22;;;23.77;51.78
39793;BME280;26080;42.264;24.536;2022-10-31T09:59:03;99693.19;;;23.87;51.36
39793;BME280;26080;42.264;24.536;2022-10-31T10:01:43;99691.53;;;24.04;51.42
39793;BME280;26080;42.264;24.536;2022-10-31T10:06:50;99664.66;;;24.23;49.99
39793;BME280;26080;42.264;24.536;2022-10-31T10:09:16;99685.22;;;24.33;50.31
39793;BME280;26080;42.264;24.536;2022-10-31T10:25:16;99680.19;;;24.20;47.77
39793;BME280;26080;42.264;24.536;2022-10-31T10:35:50;99681.69;;;24.05;45.77
39793;BME280;26080;42.264;24.536;2022-10-31T10:38:28;99675.53;;;23.94;46.46
39793;BME280;26080;42.264;24.536;2022-10-31T10:40:58;99667.97;;;23.90;47.33
39793;BME280;26080;42.264;24.536;2022-10-31T10:43:36;99662.63;;;23.90;47.34
39793;BME280;26080;42.264;24.536;2022-10-31T10:59:32;99658.28;;;24.52;46.45
39793;BME280;26080;42.264;24.536;2022-10-31T11:01:58;99659.44;;;24.49;45.75
39793;BME280;26080;42.264;24.536;2022-10-31T11:04:31;99658.34;;;24.78;44.53
39793;BME280;26080;42.264;24.536;2022-10-31T11:06:59;99654.63;;;24.71;44.63
39793;BME280;26080;42.264;24.536;2022-10-31T11:09:24;99650.72;;;24.83;43.98
39793;BME280;26080;42.264;24.536;2022-10-31T11:11:50;99652.59;;;24.91;43.34
39793;BME280;26080;42.264;24.536;2022-10-31T11:14:16;99642.13;;;24.97;44.08
39793;BME280;26080;42.264;24.536;2022-10-31T11:16:45;99635.59;;;25.00;45.59
39793;BME280;26080;42.264;24.536;2022-10-31T11:19:21;99642.97;;;24.80;44.91
39793;BME280;26080;42.264;24.536;2022-10-31T11:21:48;99637.88;;;24.69;45.32
39793;BME280;26080;42.264;24.536;2022-10-31T11:24:16;99640.84;;;24.66;45.73
39793;BME280;26080;42.264;24.536;2022-10-31T11:26:44;99641.88;;;24.91;45.01
39793;BME280;26080;42.264;24.536;2022-10-31T11:29:23;99638.06;;;25.11;43.29
39793;BME280;26080;42.264;24.536;2022-10-31T11:31:51;99640.13;;;24.99;44.22
39793;BME280;26080;42.264;24.536;2022-10-31T11:34:30;99637.06;;;24.94;45.60
39793;BME280;26080;42.264;24.536;2022-10-31T11:37:12;99640.13;;;24.99;44.99
39793;BME280;26080;42.264;24.536;2022-10-31T11:39:44;99636.84;;;24.88;44.23
39793;BME280;26080;42.264;24.536;2022-10-31T11:42:11;99635.38;;;24.93;45.09
39793;BME280;26080;42.264;24.536;2022-10-31T11:44:41;99634.31;;;24.86;44.62
39793;BME280;26080;42.264;24.536;2022-10-31T11:47:13;99642.06;;;24.71;45.80
39793;BME280;26080;42.264;24.536;2022-10-31T11:49:44;99639.75;;;24.76;45.90
39793;BME280;26080;42.264;24.536;2022-10-31T11:52:17;99639.31;;;24.81;44.24
39793;BME280;26080;42.264;24.536;2022-10-31T11:54:49;99640.16;;;24.64;45.27
39793;BME280;26080;42.264;24.536;2022-10-31T11:57:45;99634.88;;;24.72;44.86
39793;BME280;26080;42.264;24.536;2022-10-31T12:02:48;99622.91;;;24.40;46.52
39793;BME280;26080;42.264;24.536;2022-10-31T12:05:26;99631.91;;;24.39;46.39
39793;BME280;26080;42.264;24.536;2022-10-31T12:07:58;99630.38;;;24.37;47.51
39793;BME280;26080;42.264;24.536;2022-10-31T12:10:33;99631.91;;;24.39;46.22
39793;BME280;26080;42.264;24.536;2022-10-31T12:15:57;99637.03;;;24.50;46.03
39793;BME280;26080;42.264;24.536;2022-10-31T12:21:30;99638.66;;;24.43;45.88
39793;BME280;26080;42.264;24.536;2022-10-31T12:35:40;99633.72;;;24.39;47.84
39793;BME280;26080;42.264;24.536;2022-10-31T12:43:39;99634.59;;;24.12;47.47
39793;BME280;26080;42.264;24.536;2022-10-31T12:46:16;99632.91;;;24.11;47.96
39793;BME280;26080;42.264;24.536;2022-10-31T12:49:55;99632.44;;;23.98;48.60
39793;BME280;26080;42.264;24.536;2022-10-31T12:52:08;99642.56;;;24.04;48.30
39793;BME280;26080;42.264;24.536;2022-10-31T12:54:45;99632.84;;;24.20;48.17
39793;BME280;26080;42.264;24.536;2022-10-31T12:57:29;99635.63;;;24.29;49.26
39793;BME280;26080;42.264;24.536;2022-10-31T13:02:42;99646.59;;;24.35;46.35
39793;BME280;26080;42.264;24.536;2022-10-31T13:05:39;99642.97;;;24.27;46.55
39793;BME280;26080;42.264;24.536;2022-10-31T13:10:42;99640.03;;;24.02;48.28
39793;BME280;26080;42.264;24.536;2022-10-31T13:13:19;99637.09;;;23.96;47.21
39793;BME280;26080;42.264;24.536;2022-10-31T13:15:59;99637.19;;;24.04;46.52
39793;BME280;26080;42.264;24.536;2022-10-31T13:18:33;99641.66;;;24.13;45.10
39793;BME280;26080;42.264;24.536;2022-10-31T13:21:04;99643.16;;;24.43;43.30
39793;BME280;26080;42.264;24.536;2022-10-31T13:23:34;99620.06;;;24.42;42.36
39793;BME280;26080;42.264;24.536;2022-10-31T13:26:09;99616.59;;;24.49;41.49
39793;BME280;26080;42.264;24.536;2022-10-31T13:28:44;99634.56;;;24.75;41.28
39793;BME280;26080;42.264;24.536;2022-10-31T13:31:11;99616.22;;;24.62;41.19
39793;BME280;26080;42.264;24.536;2022-10-31T13:33:47;99632.22;;;24.72;41.30
39793;BME280;26080;42.264;24.536;2022-10-31T13:36:37;99623.38;;;24.79;41.07
39793;BME280;26080;42.264;24.536;2022-10-31T13:41:43;99625.94;;;24.81;40.08
39793;BME280;26080;42.264;24.536;2022-10-31T13:46:51;99628.00;;;24.69;40.07
39793;BME280;26080;42.264;24.536;2022-10-31T13:54:40;99620.06;;;24.60;39.89
39793;BME280;26080;42.264;24.536;2022-10-31T14:02:48;99624.88;;;24.56;41.04
39793;BME280;26080;42.264;24.536;2022-10-31T14:05:34;99624.72;;;24.58;40.86
39793;BME280;26080;42.264;24.536;2022-10-31T14:08:04;99623.03;;;24.57;41.04
39793;BME280;26080;42.264;24.536;2022-10-31T14:10:36;99611.09;;;24.51;40.69
39793;BME280;26080;42.264;24.536;2022-10-31T14:13:13;99627.72;;;24.55;41.19
39793;BME280;26080;42.264;24.536;2022-10-31T14:15:43;99635.50;;;24.48;40.81
39793;BME280;26080;42.264;24.536;2022-10-31T14:18:23;99630.22;;;24.38;41.17
39793;BME280;26080;42.264;24.536;2022-10-31T14:20:50;99630.69;;;24.34;41.34
39793;BME280;26080;42.264;24.536;2022-10-31T14:28:46;99634.31;;;24.15;42.60
39793;BME280;26080;42.264;24.536;2022-10-31T14:31:42;99632.38;;;24.07;42.13
39793;BME280;26080;42.264;24.536;2022-10-31T14:34:30;99635.53;;;24.03;42.29
39793;BME280;26080;42.264;24.536;2022-10-31T14:37:20;99628.78;;;23.99;42.54
39793;BME280;26080;42.264;24.536;2022-10-31T14:40:11;99638.78;;;23.97;43.34
39793;BME280;26080;42.264;24.536;2022-10-31T14:53:05;99642.44;;;23.68;45.15
39793;BME280;26080;42.264;24.536;2022-10-31T14:55:40;99643.59;;;23.56;45.72
39793;BME280;26080;42.264;24.536;2022-10-31T14:58:08;99636.56;;;23.55;45.80
39793;BME280;26080;42.264;24.536;2022-10-31T15:00:35;99641.97;;;23.45;46.05
39793;BME280;26080;42.264;24.536;2022-10-31T15:03:17;99638.63;;;23.33;46.37
39793;BME280;26080;42.264;24.536;2022-10-31T15:05:52;99637.81;;;23.23;46.82
39793;BME280;26080;42.264;24.536;2022-10-31T15:08:34;99638.81;;;23.13;47.36
39793;BME280;26080;42.264;24.536;2022-10-31T15:11:20;99612.03;;;22.75;47.93
39793;BME280;26080;42.264;24.536;2022-10-31T15:13:48;99649.00;;;22.90;48.34
39793;BME280;26080;42.264;24.536;2022-10-31T15:16:18;99650.25;;;22.76;49.16
39793;BME280;26080;42.264;24.536;2022-10-31T15:18:48;99651.06;;;22.57;49.62
39793;BME280;26080;42.264;24.536;2022-10-31T15:21:16;99647.56;;;22.37;49.92
39793;BME280;26080;42.264;24.536;2022-10-31T15:23:42;99631.50;;;22.18;50.68